createdAt,value
2018-12-11T00:01:35.274Z,5.30
2018-12-11T00:04:03.821Z,5.30
2018-12-11T00:06:32.119Z,5.30
2018-12-11T00:09:00.323Z,5.30
2018-12-11T00:11:33.906Z,5.30
2018-12-11T00:13:58.836Z,5.30
2018-12-11T00:16:27.181Z,5.30
2018-12-11T00:18:55.378Z,5.30
2018-12-11T00:21:23.598Z,5.30
2018-12-11T00:23:51.870Z,5.30
2018-12-11T00:26:20.221Z,5.30
2018-12-11T00:28:48.484Z,5.20
2018-12-11T00:31:16.757Z,5.20
2018-12-11T00:33:45.391Z,5.20
2018-12-11T00:36:13.857Z,5.10
2018-12-11T00:38:42.948Z,5.10
2018-12-11T00:41:11.182Z,5.10
2018-12-11T00:43:40.483Z,5.10
2018-12-11T00:46:08.797Z,5.10
2018-12-11T00:48:37.139Z,5.10
2018-12-11T00:51:05.500Z,5.20
2018-12-11T00:53:33.757Z,5.20
2018-12-11T00:56:02.092Z,5.20
2018-12-11T00:58:30.418Z,5.30
2018-12-11T01:00:58.668Z,5.30
2018-12-11T01:03:26.985Z,5.30
2018-12-11T01:05:55.215Z,5.30
2018-12-11T01:08:23.695Z,5.30
2018-12-11T01:10:52.119Z,5.30
2018-12-11T01:13:20.310Z,5.30
2018-12-11T01:15:48.565Z,5.30
2018-12-11T01:18:16.913Z,5.30
2018-12-11T01:20:45.333Z,5.30
2018-12-11T01:23:13.712Z,5.30
2018-12-11T01:25:41.968Z,5.30
2018-12-11T01:28:10.175Z,5.30
2018-12-11T01:30:38.562Z,5.30
2018-12-11T01:33:06.748Z,5.30
2018-12-11T01:35:36.308Z,5.30
2018-12-11T01:38:04.559Z,5.30
2018-12-11T01:40:32.895Z,5.30
2018-12-11T01:43:01.155Z,5.30
2018-12-11T01:45:29.467Z,5.30
2018-12-11T01:47:57.660Z,5.30
2018-12-11T01:50:26.013Z,5.30
2018-12-11T01:52:54.307Z,5.30
2018-12-11T01:55:22.533Z,5.30
2018-12-11T01:57:50.668Z,5.30
2018-12-11T02:00:19.283Z,5.30
2018-12-11T02:02:47.495Z,5.30
2018-12-11T02:05:15.767Z,5.30
2018-12-11T02:07:44.145Z,5.40
2018-12-11T02:10:12.390Z,5.40
2018-12-11T02:12:40.697Z,5.40
2018-12-11T02:15:09.002Z,5.40
2018-12-11T02:17:37.293Z,5.40
2018-12-11T02:20:06.669Z,5.40
2018-12-11T02:22:34.822Z,5.40
2018-12-11T02:25:03.088Z,5.40
2018-12-11T02:27:31.309Z,5.40
2018-12-11T02:29:59.576Z,5.40
2018-12-11T02:32:27.814Z,5.40
2018-12-11T02:34:56.086Z,5.40
2018-12-11T02:37:24.263Z,5.40
2018-12-11T02:39:52.556Z,5.40
2018-12-11T02:42:20.867Z,5.40
2018-12-11T02:44:49.096Z,5.40
2018-12-11T02:47:17.343Z,5.40
2018-12-11T02:49:45.473Z,5.40
2018-12-11T02:52:13.692Z,5.40
2018-12-11T02:54:42.233Z,5.40
2018-12-11T02:57:10.815Z,5.40
2018-12-11T02:59:39.075Z,5.40
2018-12-11T03:02:08.130Z,5.40
2018-12-11T03:04:36.401Z,5.40
2018-12-11T03:07:04.653Z,5.40
2018-12-11T03:09:32.868Z,5.40
2018-12-11T03:12:01.755Z,5.40
2018-12-11T03:14:30.056Z,5.40
2018-12-11T03:16:58.445Z,5.40
2018-12-11T03:19:27.950Z,5.40
2018-12-11T03:21:56.154Z,5.50
2018-12-11T03:24:25.040Z,5.50
2018-12-11T03:26:53.433Z,5.50
2018-12-11T03:31:58.911Z,5.50
2018-12-11T03:34:27.033Z,5.50
2018-12-11T03:36:56.453Z,5.60
2018-12-11T03:39:25.133Z,5.50
2018-12-11T03:41:53.357Z,5.60
2018-12-11T03:44:21.454Z,5.60
2018-12-11T03:46:50.338Z,5.60
2018-12-11T03:49:18.623Z,5.60
2018-12-11T03:51:56.791Z,5.60
2018-12-11T03:54:25.238Z,5.60
2018-12-11T03:56:53.628Z,5.60
2018-12-11T03:59:21.840Z,5.60
2018-12-11T04:01:50.092Z,5.60
2018-12-11T04:04:19.532Z,5.70
2018-12-11T04:06:47.738Z,5.60
2018-12-11T04:09:15.920Z,5.60
2018-12-11T04:11:44.750Z,5.60
2018-12-11T04:14:13.000Z,5.60
2018-12-11T04:16:41.130Z,5.60
2018-12-11T04:19:09.322Z,5.50
2018-12-11T04:21:37.521Z,5.50
2018-12-11T04:24:05.884Z,5.50
2018-12-11T04:26:34.151Z,5.50
2018-12-11T04:29:02.296Z,5.50
2018-12-11T04:31:30.517Z,5.50
2018-12-11T04:33:58.826Z,5.50
2018-12-11T04:36:27.190Z,5.50
2018-12-11T04:38:55.462Z,5.50
2018-12-11T04:41:23.623Z,5.50
2018-12-11T04:43:52.059Z,5.50
2018-12-11T04:46:20.866Z,5.40
2018-12-11T04:48:49.092Z,5.40
2018-12-11T04:51:17.340Z,5.40
2018-12-11T04:53:45.694Z,5.40
2018-12-11T04:56:13.807Z,5.40
2018-12-11T04:58:42.019Z,5.40
2018-12-11T05:01:10.208Z,5.30
2018-12-11T05:03:39.327Z,5.30
2018-12-11T05:06:08.699Z,5.30
2018-12-11T05:08:36.925Z,5.30
2018-12-11T05:11:05.144Z,5.30
2018-12-11T05:13:33.262Z,5.30
2018-12-11T05:16:02.336Z,5.20
2018-12-11T05:18:30.515Z,5.20
2018-12-11T05:20:58.792Z,5.20
2018-12-11T05:23:27.080Z,5.20
2018-12-11T05:25:55.312Z,5.20
2018-12-11T05:28:23.586Z,5.20
2018-12-11T05:30:51.849Z,5.20
2018-12-11T05:33:21.510Z,5.20
2018-12-11T05:35:49.686Z,5.20
2018-12-11T05:38:17.966Z,5.30
2018-12-11T05:40:46.240Z,5.30
2018-12-11T05:43:14.516Z,5.30
2018-12-11T05:45:42.831Z,5.30
2018-12-11T05:48:11.117Z,5.30
2018-12-11T05:50:40.097Z,5.20
2018-12-11T05:53:08.343Z,5.20
2018-12-11T05:55:36.581Z,5.20
2018-12-11T05:58:04.715Z,5.10
2018-12-11T06:00:33.563Z,5.10
2018-12-11T06:03:01.931Z,5.00
2018-12-11T06:05:30.376Z,5.00
2018-12-11T06:07:58.753Z,4.90
2018-12-11T06:10:27.025Z,4.90
2018-12-11T06:12:55.206Z,4.80
2018-12-11T06:15:23.675Z,4.80
2018-12-11T06:17:51.955Z,4.70
2018-12-11T06:20:20.174Z,4.50
2018-12-11T06:22:49.921Z,4.40
2018-12-11T06:25:18.164Z,4.30
2018-12-11T06:27:48.364Z,4.30
2018-12-11T06:30:16.664Z,4.30
2018-12-11T06:32:44.809Z,4.30
2018-12-11T06:35:13.062Z,4.30
2018-12-11T06:37:41.256Z,4.30
2018-12-11T06:40:10.637Z,4.30
2018-12-11T06:42:38.828Z,4.40
2018-12-11T06:45:07.257Z,4.40
2018-12-11T06:47:35.624Z,4.50
2018-12-11T06:50:04.736Z,4.50
2018-12-11T06:52:33.647Z,4.50
2018-12-11T06:55:01.864Z,4.50
2018-12-11T06:57:30.076Z,4.60
2018-12-11T06:59:58.364Z,4.60
2018-12-11T07:02:26.600Z,4.60
2018-12-11T07:04:54.892Z,4.70
2018-12-11T07:07:23.150Z,4.70
2018-12-11T07:09:51.370Z,4.70
2018-12-11T07:12:19.641Z,4.80
2018-12-11T07:14:47.851Z,4.80
2018-12-11T07:17:16.556Z,4.80
2018-12-11T07:19:44.713Z,4.80
2018-12-11T07:22:12.853Z,4.80
2018-12-11T07:24:41.059Z,4.80
2018-12-11T07:27:09.384Z,4.90
2018-12-11T07:29:37.630Z,4.90
2018-12-11T07:32:05.960Z,4.90
2018-12-11T07:34:34.135Z,4.90
2018-12-11T07:37:02.343Z,4.80
2018-12-11T07:39:30.556Z,4.80
2018-12-11T07:41:59.192Z,4.80
2018-12-11T07:44:27.424Z,4.80
2018-12-11T07:46:55.720Z,4.80
2018-12-11T07:49:23.963Z,4.80
2018-12-11T07:51:52.117Z,4.80
2018-12-11T07:54:21.661Z,4.80
2018-12-11T07:56:49.870Z,4.80
2018-12-11T07:59:19.600Z,4.80
2018-12-11T08:01:47.850Z,4.80
2018-12-11T08:04:16.162Z,4.70
2018-12-11T08:06:44.394Z,4.70
2018-12-11T08:09:12.625Z,4.60
2018-12-11T08:11:40.806Z,4.60
2018-12-11T08:14:09.114Z,4.60
2018-12-11T08:16:37.525Z,4.60
2018-12-11T08:19:06.284Z,4.60
2018-12-11T08:21:34.438Z,4.50
2018-12-11T08:24:02.631Z,4.40
2018-12-11T08:26:30.796Z,4.30
2018-12-11T08:28:59.056Z,4.30
2018-12-11T08:31:27.290Z,4.30
2018-12-11T08:33:55.551Z,4.30
2018-12-11T08:36:23.732Z,4.40
2018-12-11T08:38:51.878Z,4.40
2018-12-11T08:41:20.183Z,4.50
2018-12-11T08:43:49.246Z,4.50
2018-12-11T08:46:17.430Z,4.50
2018-12-11T08:48:45.588Z,4.50
2018-12-11T08:51:13.800Z,4.60
2018-12-11T08:53:43.187Z,4.60
2018-12-11T08:56:11.418Z,4.70
2018-12-11T08:58:39.704Z,4.70
2018-12-11T09:01:08.109Z,4.70
2018-12-11T09:03:36.350Z,4.80
2018-12-11T09:06:04.596Z,4.80
2018-12-11T09:08:32.974Z,4.80
2018-12-11T09:11:01.148Z,4.80
2018-12-11T09:13:29.310Z,4.80
2018-12-11T09:15:57.728Z,4.70
2018-12-11T09:18:25.961Z,4.70
2018-12-11T09:20:54.165Z,4.70
2018-12-11T09:23:22.379Z,4.70
2018-12-11T09:25:57.428Z,4.70
2018-12-11T09:28:25.701Z,4.70
2018-12-11T09:30:54.891Z,4.70
2018-12-11T09:33:24.375Z,4.70
2018-12-11T09:35:52.594Z,4.70
2018-12-11T09:38:20.762Z,4.80
2018-12-11T09:40:48.934Z,4.80
2018-12-11T09:43:17.207Z,4.90
2018-12-11T09:45:45.473Z,4.90
2018-12-11T09:48:13.765Z,4.90
2018-12-11T09:50:42.069Z,5.00
2018-12-11T09:53:10.250Z,5.00
2018-12-11T09:55:38.501Z,5.10
2018-12-11T09:58:06.951Z,5.10
2018-12-11T10:00:35.237Z,5.10
2018-12-11T10:03:03.717Z,5.10
2018-12-11T10:05:32.073Z,5.10
2018-12-11T10:08:00.221Z,5.10
2018-12-11T10:10:28.750Z,5.10
2018-12-11T10:12:56.899Z,5.10
2018-12-11T10:15:25.137Z,5.00
2018-12-11T10:17:53.550Z,5.00
2018-12-11T10:20:22.270Z,5.00
2018-12-11T10:22:50.683Z,5.00
2018-12-11T10:25:18.805Z,5.00
2018-12-11T10:27:47.160Z,5.00
2018-12-11T10:30:15.505Z,5.00
2018-12-11T10:32:48.091Z,4.90
2018-12-11T10:35:17.134Z,4.90
2018-12-11T10:37:45.384Z,4.90
2018-12-11T10:40:13.751Z,4.80
2018-12-11T10:42:41.942Z,4.80
2018-12-11T10:45:12.260Z,4.80
2018-12-11T10:47:40.683Z,4.80
2018-12-11T10:50:09.048Z,4.80
2018-12-11T10:52:37.336Z,4.80
2018-12-11T10:55:05.876Z,4.80
2018-12-11T10:57:34.207Z,4.80
2018-12-11T11:00:02.467Z,4.80
2018-12-11T11:02:30.704Z,4.80
2018-12-11T11:04:58.945Z,4.80
2018-12-11T11:07:27.249Z,4.80
2018-12-11T11:09:55.547Z,4.90
2018-12-11T11:12:24.097Z,4.80
2018-12-11T11:14:52.361Z,4.80
2018-12-11T11:17:20.724Z,4.80
2018-12-11T11:19:48.939Z,4.80
2018-12-11T11:22:17.379Z,4.90
2018-12-11T11:24:45.697Z,4.90
2018-12-11T11:27:14.332Z,4.80
2018-12-11T11:29:42.682Z,4.80
2018-12-11T11:32:11.026Z,4.80
2018-12-11T11:34:40.206Z,4.90
2018-12-11T11:37:09.781Z,4.90
2018-12-11T11:39:38.006Z,4.90
2018-12-11T11:42:06.253Z,4.90
2018-12-11T11:44:34.574Z,4.90
2018-12-11T11:47:02.818Z,4.90
2018-12-11T11:49:31.100Z,4.80
2018-12-11T11:51:59.392Z,4.80
2018-12-11T11:54:27.532Z,4.80
2018-12-11T11:56:56.491Z,4.80
2018-12-11T11:59:24.770Z,4.70
2018-12-11T12:01:52.952Z,4.80
2018-12-11T12:04:21.174Z,4.80
2018-12-11T12:06:49.370Z,4.70
2018-12-11T12:09:17.523Z,4.70
2018-12-11T12:11:45.705Z,4.70
2018-12-11T12:14:13.916Z,4.80
2018-12-11T12:16:42.435Z,4.80
2018-12-11T12:19:10.658Z,4.90
2018-12-11T12:21:39.125Z,4.90
2018-12-11T12:24:07.377Z,4.90
2018-12-11T12:26:35.645Z,4.80
2018-12-11T12:29:03.955Z,4.90
2018-12-11T12:31:32.371Z,4.80
2018-12-11T12:34:00.659Z,4.90
2018-12-11T12:36:28.834Z,4.90
2018-12-11T12:38:57.167Z,4.90
2018-12-11T12:41:25.447Z,4.90
2018-12-11T12:43:53.741Z,4.90
2018-12-11T12:46:22.073Z,4.90
2018-12-11T12:48:50.311Z,4.90
2018-12-11T12:51:18.560Z,4.90
2018-12-11T12:53:46.857Z,4.90
2018-12-11T12:56:15.165Z,4.90
2018-12-11T12:58:43.601Z,4.90
2018-12-11T13:01:12.536Z,4.90
2018-12-11T13:03:41.417Z,4.90
2018-12-11T13:06:09.755Z,4.90
2018-12-11T13:08:38.267Z,4.90
2018-12-11T13:11:06.483Z,4.90
2018-12-11T13:13:35.004Z,5.00
2018-12-11T13:16:03.521Z,5.00
2018-12-11T13:18:31.929Z,5.00
2018-12-11T13:21:00.156Z,5.00
2018-12-11T13:23:28.632Z,5.00
2018-12-11T13:25:56.907Z,5.00
2018-12-11T13:28:25.327Z,5.10
2018-12-11T13:30:53.572Z,5.10
2018-12-11T13:33:22.033Z,5.10
2018-12-11T13:35:50.464Z,5.10
2018-12-11T13:38:18.889Z,5.10
2018-12-11T13:40:47.487Z,5.10
2018-12-11T13:43:15.793Z,5.10
2018-12-11T13:45:44.079Z,5.20
2018-12-11T13:48:14.446Z,5.10
2018-12-11T13:50:42.987Z,5.10
2018-12-11T13:53:11.253Z,5.10
2018-12-11T13:55:39.547Z,5.20
2018-12-11T13:58:07.749Z,5.20
2018-12-11T14:00:36.057Z,5.20
2018-12-11T14:03:04.894Z,5.10
2018-12-11T14:05:33.063Z,5.10
2018-12-11T14:08:02.022Z,5.20
2018-12-11T14:10:30.567Z,5.20
2018-12-11T14:12:58.877Z,5.20
2018-12-11T14:15:27.078Z,5.20
2018-12-11T14:17:55.388Z,5.20
2018-12-11T14:20:23.555Z,5.20
2018-12-11T14:22:51.765Z,5.20
2018-12-11T14:25:20.301Z,5.20
2018-12-11T14:27:48.502Z,5.20
2018-12-11T14:30:17.368Z,5.20
2018-12-11T14:32:45.783Z,5.20
2018-12-11T14:35:14.167Z,5.20
2018-12-11T14:37:42.360Z,5.20
2018-12-11T14:40:13.511Z,5.20
2018-12-11T14:42:41.892Z,5.20
2018-12-11T14:45:10.336Z,5.30
2018-12-11T14:47:38.893Z,5.30
2018-12-11T14:50:08.723Z,5.30
2018-12-11T14:52:36.941Z,5.30
2018-12-11T14:55:06.352Z,5.30
2018-12-11T14:57:34.645Z,5.30
2018-12-11T15:00:03.369Z,5.30
2018-12-11T15:02:31.974Z,5.30
2018-12-11T15:05:00.575Z,5.30
2018-12-11T15:07:30.944Z,5.30
2018-12-11T15:09:59.093Z,5.30
2018-12-11T15:12:28.190Z,5.30
2018-12-11T15:14:56.598Z,5.30
2018-12-11T15:17:24.880Z,5.30
2018-12-11T15:19:53.022Z,5.30
2018-12-11T15:22:21.168Z,5.30
2018-12-11T15:24:49.528Z,5.30
2018-12-11T15:27:17.871Z,5.30
2018-12-11T15:29:46.341Z,5.30
2018-12-11T15:32:14.813Z,5.20
2018-12-11T15:34:43.299Z,5.20
2018-12-11T15:37:11.694Z,5.20
2018-12-11T15:39:40.281Z,5.20
2018-12-11T15:42:08.948Z,5.20
2018-12-11T15:44:37.186Z,5.20
2018-12-11T15:47:06.114Z,5.20
2018-12-11T15:49:34.651Z,5.20
2018-12-11T15:52:03.093Z,5.20
2018-12-11T15:54:31.291Z,5.20
2018-12-11T15:57:00.040Z,5.20
2018-12-11T15:59:28.288Z,5.20
2018-12-11T16:01:56.515Z,5.30
2018-12-11T16:04:24.690Z,5.30
2018-12-11T16:06:53.004Z,5.30
2018-12-11T16:09:25.598Z,5.30
2018-12-11T16:11:53.802Z,5.20
2018-12-11T16:14:21.960Z,5.20
2018-12-11T16:16:50.243Z,5.20
2018-12-11T16:19:18.458Z,5.20
2018-12-11T16:21:46.671Z,5.20
2018-12-11T16:24:14.841Z,5.20
2018-12-11T16:26:43.178Z,5.20
2018-12-11T16:29:11.451Z,5.30
2018-12-11T16:31:40.688Z,5.30
2018-12-11T16:34:08.979Z,5.30
2018-12-11T16:36:37.180Z,5.20
2018-12-11T16:39:07.086Z,5.30
2018-12-11T16:41:35.511Z,5.20
2018-12-11T16:44:03.787Z,5.20
2018-12-11T16:46:31.991Z,5.20
2018-12-11T16:49:00.187Z,5.20
2018-12-11T16:51:30.482Z,5.20
2018-12-11T16:53:58.896Z,5.20
2018-12-11T16:56:27.175Z,5.20
2018-12-11T16:58:57.100Z,5.10
2018-12-11T17:01:25.301Z,5.10
2018-12-11T17:03:53.517Z,5.10
2018-12-11T17:06:21.719Z,5.10
2018-12-11T17:08:49.957Z,5.10
2018-12-11T17:11:20.540Z,5.20
2018-12-11T17:13:49.308Z,5.20
2018-12-11T17:16:17.668Z,5.20
2018-12-11T17:18:46.180Z,5.20
2018-12-11T17:21:14.758Z,5.20
2018-12-11T17:23:43.107Z,5.20
2018-12-11T17:26:11.904Z,5.20
2018-12-11T17:28:40.257Z,5.10
2018-12-11T17:31:08.648Z,5.20
2018-12-11T17:33:36.973Z,5.20
2018-12-11T17:36:05.522Z,5.20
2018-12-11T17:38:33.963Z,5.20
2018-12-11T17:41:02.444Z,5.20
2018-12-11T17:43:31.515Z,5.20
2018-12-11T17:45:59.873Z,5.20
2018-12-11T17:48:28.817Z,5.20
2018-12-11T17:50:57.568Z,5.30
2018-12-11T17:53:26.407Z,5.20
2018-12-11T17:55:54.637Z,5.30
2018-12-11T17:58:24.087Z,5.20
2018-12-11T18:00:52.659Z,5.20
2018-12-11T18:03:20.943Z,5.20
2018-12-11T18:05:49.315Z,5.20
2018-12-11T18:08:17.927Z,5.20
2018-12-11T18:10:46.367Z,5.20
2018-12-11T18:13:14.925Z,5.20
2018-12-11T18:15:43.417Z,5.10
2018-12-11T18:18:11.755Z,5.10
2018-12-11T18:20:39.954Z,5.10
2018-12-11T18:23:08.385Z,5.10
2018-12-11T18:25:38.096Z,5.00
2018-12-11T18:28:08.059Z,5.00
2018-12-11T18:30:36.608Z,5.00
2018-12-11T18:33:05.124Z,5.00
2018-12-11T18:35:33.586Z,5.00
2018-12-11T18:38:02.071Z,5.00
2018-12-11T18:40:30.528Z,5.00
2018-12-11T18:42:58.836Z,5.00
2018-12-11T18:45:27.348Z,5.00
2018-12-11T18:47:56.046Z,5.00
2018-12-11T18:50:24.414Z,5.00
2018-12-11T18:52:53.696Z,4.90
2018-12-11T18:55:22.024Z,4.90
2018-12-11T18:57:50.680Z,4.90
2018-12-11T19:00:19.247Z,5.00
2018-12-11T19:02:47.629Z,5.00
2018-12-11T19:05:16.005Z,4.90
2018-12-11T19:07:44.404Z,4.90
2018-12-11T19:10:12.960Z,4.90
2018-12-11T19:12:41.222Z,4.80
2018-12-11T19:15:09.634Z,4.80
2018-12-11T19:17:38.009Z,4.70
2018-12-11T19:20:07.342Z,4.60
2018-12-11T19:25:23.594Z,4.50
2018-12-11T19:27:55.134Z,4.40
2018-12-11T19:30:23.569Z,4.30
2018-12-11T19:32:52.725Z,4.30
2018-12-11T19:35:21.192Z,4.30
2018-12-11T19:37:49.668Z,4.30
2018-12-11T19:40:17.960Z,4.30
2018-12-11T19:42:47.728Z,4.30
2018-12-11T19:45:16.959Z,4.30
2018-12-11T19:47:45.537Z,4.40
2018-12-11T19:50:14.980Z,4.50
2018-12-11T19:52:43.373Z,4.50
2018-12-11T19:55:12.188Z,4.50
2018-12-11T19:57:40.503Z,4.40
2018-12-11T20:00:09.168Z,4.30
2018-12-11T20:02:38.035Z,4.20
2018-12-11T20:05:06.922Z,4.10
2018-12-11T20:07:36.924Z,4.10
2018-12-11T20:10:12.203Z,4.00
2018-12-11T20:12:41.102Z,4.00
2018-12-11T20:15:10.075Z,3.90
2018-12-11T20:17:38.663Z,3.90
2018-12-11T20:20:07.505Z,3.80
2018-12-11T20:22:37.140Z,3.80
2018-12-11T20:25:06.088Z,3.80
2018-12-11T20:27:35.557Z,3.80
2018-12-11T20:30:05.270Z,3.90
2018-12-11T20:32:34.253Z,3.90
2018-12-11T20:35:03.261Z,3.90
2018-12-11T20:37:32.233Z,3.90
2018-12-11T20:40:00.757Z,3.90
2018-12-11T20:42:30.225Z,3.90
2018-12-11T20:44:59.375Z,4.00
2018-12-11T20:47:29.460Z,4.00
2018-12-11T20:49:58.089Z,4.00
2018-12-11T20:52:27.842Z,4.00
2018-12-11T20:54:56.399Z,3.90
2018-12-11T20:57:24.859Z,4.00
2018-12-11T20:59:53.323Z,4.00
2018-12-11T21:02:24.168Z,3.90
2018-12-11T21:04:52.875Z,3.90
2018-12-11T21:07:22.632Z,3.90
2018-12-11T21:09:54.555Z,3.80
2018-12-11T21:12:23.427Z,3.80
2018-12-11T21:14:52.024Z,3.80
2018-12-11T21:17:23.346Z,3.80
2018-12-11T21:19:53.623Z,3.80
2018-12-11T21:22:22.539Z,3.80
2018-12-11T21:24:52.886Z,3.80
2018-12-11T21:27:23.185Z,3.80
2018-12-11T21:29:52.530Z,3.80
2018-12-11T21:32:22.339Z,3.80
2018-12-11T21:34:53.027Z,3.70
2018-12-11T21:37:22.654Z,3.70
2018-12-11T21:39:52.988Z,3.70
2018-12-11T21:42:21.387Z,3.80
2018-12-11T21:44:50.491Z,3.80
2018-12-11T21:47:20.015Z,3.80
2018-12-11T21:49:49.461Z,3.70
2018-12-11T21:52:18.241Z,3.70
2018-12-11T21:54:46.663Z,3.70
2018-12-11T21:57:15.337Z,3.80
2018-12-11T21:59:43.818Z,3.80
2018-12-11T22:02:17.722Z,3.80
2018-12-11T22:04:47.228Z,3.80
2018-12-11T22:07:15.856Z,3.90
2018-12-11T22:09:44.345Z,3.90
2018-12-11T22:12:12.718Z,3.90
2018-12-11T22:14:40.927Z,3.90
2018-12-11T22:17:09.291Z,4.00
2018-12-11T22:19:37.462Z,4.00
2018-12-11T22:22:05.930Z,4.00
2018-12-11T22:24:34.078Z,4.00
2018-12-11T22:27:07.251Z,4.10
2018-12-11T22:29:35.529Z,4.10
2018-12-11T22:32:03.963Z,4.00
2018-12-11T22:34:32.259Z,4.00
2018-12-11T22:37:00.466Z,4.00
2018-12-11T22:39:33.629Z,3.90
2018-12-11T22:42:02.283Z,3.90
2018-12-11T22:44:33.497Z,4.00
2018-12-11T22:47:02.380Z,4.00
2018-12-11T22:49:31.228Z,3.90
2018-12-11T22:51:59.555Z,3.90
2018-12-11T22:54:27.779Z,3.90
2018-12-11T22:56:57.078Z,3.90
2018-12-11T22:59:25.385Z,3.90
2018-12-11T23:01:53.630Z,3.90
2018-12-11T23:04:21.940Z,3.90
2018-12-11T23:06:50.161Z,3.80
2018-12-11T23:09:18.400Z,3.70
2018-12-11T23:11:46.692Z,3.70
2018-12-11T23:14:15.181Z,3.70
2018-12-11T23:16:43.478Z,3.70
2018-12-11T23:19:11.762Z,3.80
2018-12-11T23:21:40.338Z,3.80
2018-12-11T23:24:08.836Z,3.90
2018-12-11T23:26:37.025Z,3.90
2018-12-11T23:29:05.318Z,3.90
2018-12-11T23:31:33.676Z,3.90
2018-12-11T23:34:01.919Z,3.90
2018-12-11T23:36:30.850Z,3.90
2018-12-11T23:39:02.128Z,3.90
2018-12-11T23:41:35.799Z,3.90
2018-12-11T23:44:04.099Z,3.90
2018-12-11T23:46:32.358Z,3.90
2018-12-11T23:49:00.585Z,3.90
2018-12-11T23:51:28.879Z,3.90
2018-12-11T23:53:57.099Z,3.90
2018-12-11T23:56:26.226Z,4.00
2018-12-11T23:58:54.497Z,3.90
